Terminal Aerodrome Forecast
Issued by NWS

Current Version | Previous Version | Text Only | Print | Product List | Glossary Off
Versions: 1 2 3 4 5 6 7 8 9 10 11 12 13 14 15 16 17 18 19 20 21

000
FTUS41 KILN 071122
TAFLUK
TAF
KLUK 071122Z 0712/0812 00000KT P6SM FEW250
     FM071500 22010KT P6SM SCT150
     FM072300 21005KT P6SM BKN050 OVC120
     FM080300 20004KT P6SM -RA SCT025 OVC035
     FM080900 25006KT P6SM BKN025 OVC100=

USA.gov is the U.S. government's official web portal to all federal, state and local government web resources and services.